sensor_id;sensor_type;location;lat;lon;timestamp;P1;P2;P0
13030;PMS7003;6582;54.644;9.760;2023-08-08T00:00:01;67.6;54.2;
13030;PMS7003;6582;54.644;9.760;2023-08-08T00:05:01;67.8;54.1;
13030;PMS7003;6582;54.644;9.760;2023-08-08T00:10:01;67.7;54.1;
13030;PMS7003;6582;54.644;9.760;2023-08-08T00:15:01;66.7;53.8;
13030;PMS7003;6582;54.644;9.760;2023-08-08T00:20:07;66.0;53.2;
13030;PMS7003;6582;54.644;9.760;2023-08-08T00:30:07;66.2;53.8;
13030;PMS7003;6582;54.644;9.760;2023-08-08T00:35:01;65.6;53.1;
13030;PMS7003;6582;54.644;9.760;2023-08-08T00:40:01;65.4;53.0;
13030;PMS7003;6582;54.644;9.760;2023-08-08T00:45:06;65.6;53.2;
13030;PMS7003;6582;54.644;9.760;2023-08-08T00:50:11;66.3;53.3;
13030;PMS7003;6582;54.644;9.760;2023-08-08T00:55:01;66.0;53.2;
13030;PMS7003;6582;54.644;9.760;2023-08-08T01:00:01;66.2;53.7;
13030;PMS7003;6582;54.644;9.760;2023-08-08T01:05:02;66.7;53.9;
13030;PMS7003;6582;54.644;9.760;2023-08-08T01:10:03;67.4;54.2;
13030;PMS7003;6582;54.644;9.760;2023-08-08T01:15:01;70.0;56.6;
13030;PMS7003;6582;54.644;9.760;2023-08-08T01:20:03;70.6;56.8;
13030;PMS7003;6582;54.644;9.760;2023-08-08T01:25:01;71.1;56.9;
13030;PMS7003;6582;54.644;9.760;2023-08-08T01:30:01;71.2;57.0;
13030;PMS7003;6582;54.644;9.760;2023-08-08T01:35:01;71.6;57.5;
13030;PMS7003;6582;54.644;9.760;2023-08-08T01:40:01;70.7;56.3;
13030;PMS7003;6582;54.644;9.760;2023-08-08T01:45:01;70.2;55.8;
13030;PMS7003;6582;54.644;9.760;2023-08-08T01:50:01;69.5;55.3;
13030;PMS7003;6582;54.644;9.760;2023-08-08T01:55:01;69.0;54.9;
13030;PMS7003;6582;54.644;9.760;2023-08-08T02:00:01;76.3;62.4;
13030;PMS7003;6582;54.644;9.760;2023-08-08T02:05:02;74.2;61.4;
13030;PMS7003;6582;54.644;9.760;2023-08-08T02:15:01;74.8;62.2;
13030;PMS7003;6582;54.644;9.760;2023-08-08T02:20:01;76.1;63.1;
13030;PMS7003;6582;54.644;9.760;2023-08-08T02:25:02;69.1;55.4;
13030;PMS7003;6582;54.644;9.760;2023-08-08T02:30:01;69.4;55.6;
13030;PMS7003;6582;54.644;9.760;2023-08-08T02:35:06;70.0;55.8;
13030;PMS7003;6582;54.644;9.760;2023-08-08T02:40:01;69.3;55.5;
13030;PMS7003;6582;54.644;9.760;2023-08-08T02:45:01;67.9;54.4;
13030;PMS7003;6582;54.644;9.760;2023-08-08T02:50:01;67.0;54.1;
13030;PMS7003;6582;54.644;9.760;2023-08-08T02:55:01;66.4;53.6;
13030;PMS7003;6582;54.644;9.760;2023-08-08T03:00:01;65.5;53.0;
13030;PMS7003;6582;54.644;9.760;2023-08-08T03:05:01;66.6;53.6;
13030;PMS7003;6582;54.644;9.760;2023-08-08T03:10:01;67.2;54.3;
13030;PMS7003;6582;54.644;9.760;2023-08-08T03:15:01;69.0;55.8;
13030;PMS7003;6582;54.644;9.760;2023-08-08T03:20:01;71.7;57.6;
13030;PMS7003;6582;54.644;9.760;2023-08-08T03:25:01;71.2;57.3;
13030;PMS7003;6582;54.644;9.760;2023-08-08T03:30:01;70.5;56.8;
13030;PMS7003;6582;54.644;9.760;2023-08-08T03:35:01;70.1;56.4;
13030;PMS7003;6582;54.644;9.760;2023-08-08T03:40:02;67.6;54.4;
13030;PMS7003;6582;54.644;9.760;2023-08-08T03:45:02;65.0;52.7;
13030;PMS7003;6582;54.644;9.760;2023-08-08T03:50:01;65.5;53.3;
13030;PMS7003;6582;54.644;9.760;2023-08-08T03:55:01;69.4;57.1;
13030;PMS7003;6582;54.644;9.760;2023-08-08T04:00:01;69.6;57.4;
13030;PMS7003;6582;54.644;9.760;2023-08-08T04:05:01;70.6;58.2;
13030;PMS7003;6582;54.644;9.760;2023-08-08T04:15:01;69.8;57.6;
13030;PMS7003;6582;54.644;9.760;2023-08-08T04:20:01;65.6;54.0;
13030;PMS7003;6582;54.644;9.760;2023-08-08T04:25:01;64.9;53.6;
13030;PMS7003;6582;54.644;9.760;2023-08-08T04:30:16;64.0;53.1;
13030;PMS7003;6582;54.644;9.760;2023-08-08T04:35:01;64.4;53.1;
13030;PMS7003;6582;54.644;9.760;2023-08-08T04:40:01;70.6;58.5;
13030;PMS7003;6582;54.644;9.760;2023-08-08T04:45:02;70.5;58.6;
13030;PMS7003;6582;54.644;9.760;2023-08-08T04:50:01;71.1;59.1;
13030;PMS7003;6582;54.644;9.760;2023-08-08T04:55:01;71.2;59.2;
13030;PMS7003;6582;54.644;9.760;2023-08-08T05:00:02;70.8;59.0;
13030;PMS7003;6582;54.644;9.760;2023-08-08T05:05:01;65.2;54.1;
13030;PMS7003;6582;54.644;9.760;2023-08-08T05:10:01;65.4;54.1;
13030;PMS7003;6582;54.644;9.760;2023-08-08T05:15:01;65.4;54.1;
13030;PMS7003;6582;54.644;9.760;2023-08-08T05:25:01;65.5;54.1;
13030;PMS7003;6582;54.644;9.760;2023-08-08T05:30:01;66.0;54.6;
13030;PMS7003;6582;54.644;9.760;2023-08-08T05:40:01;65.8;54.4;
13030;PMS7003;6582;54.644;9.760;2023-08-08T05:45:01;65.7;54.3;
13030;PMS7003;6582;54.644;9.760;2023-08-08T05:50:01;67.2;55.3;
13030;PMS7003;6582;54.644;9.760;2023-08-08T05:55:06;66.7;55.0;
13030;PMS7003;6582;54.644;9.760;2023-08-08T06:00:04;66.8;54.8;
13030;PMS7003;6582;54.644;9.760;2023-08-08T06:10:01;67.8;55.6;
13030;PMS7003;6582;54.644;9.760;2023-08-08T06:15:01;66.5;54.7;
13030;PMS7003;6582;54.644;9.760;2023-08-08T06:20:06;66.8;54.8;
13030;PMS7003;6582;54.644;9.760;2023-08-08T06:25:01;66.5;54.6;
13030;PMS7003;6582;54.644;9.760;2023-08-08T06:30:01;66.4;54.4;
13030;PMS7003;6582;54.644;9.760;2023-08-08T06:35:02;69.8;58.4;
13030;PMS7003;6582;54.644;9.760;2023-08-08T06:40:01;70.6;58.9;
13030;PMS7003;6582;54.644;9.760;2023-08-08T06:45:01;73.5;61.8;
13030;PMS7003;6582;54.644;9.760;2023-08-08T06:55:01;73.0;61.6;
13030;PMS7003;6582;54.644;9.760;2023-08-08T07:00:01;68.0;56.6;
13030;PMS7003;6582;54.644;9.760;2023-08-08T07:05:01;66.8;55.8;
13030;PMS7003;6582;54.644;9.760;2023-08-08T07:10:01;63.2;52.4;
13030;PMS7003;6582;54.644;9.760;2023-08-08T07:15:01;62.8;52.5;
13030;PMS7003;6582;54.644;9.760;2023-08-08T07:20:01;63.0;52.5;
13030;PMS7003;6582;54.644;9.760;2023-08-08T07:25:01;64.0;53.1;
13030;PMS7003;6582;54.644;9.760;2023-08-08T07:30:01;64.6;53.5;
13030;PMS7003;6582;54.644;9.760;2023-08-08T07:35:01;65.2;53.8;
13030;PMS7003;6582;54.644;9.760;2023-08-08T07:40:02;65.7;53.8;
13030;PMS7003;6582;54.644;9.760;2023-08-08T07:45:06;66.2;54.3;
13030;PMS7003;6582;54.644;9.760;2023-08-08T07:50:01;66.7;54.7;
13030;PMS7003;6582;54.644;9.760;2023-08-08T07:55:02;66.6;54.6;
13030;PMS7003;6582;54.644;9.760;2023-08-08T08:00:06;66.6;54.6;
13030;PMS7003;6582;54.644;9.760;2023-08-08T08:05:01;67.2;55.1;
13030;PMS7003;6582;54.644;9.760;2023-08-08T08:10:02;69.8;58.4;
13030;PMS7003;6582;54.644;9.760;2023-08-08T08:15:02;68.9;57.7;
13030;PMS7003;6582;54.644;9.760;2023-08-08T08:20:01;68.4;57.3;
13030;PMS7003;6582;54.644;9.760;2023-08-08T08:25:01;71.2;61.4;
13030;PMS7003;6582;54.644;9.760;2023-08-08T08:30:01;70.5;61.0;
13030;PMS7003;6582;54.644;9.760;2023-08-08T08:35:02;67.8;57.6;
13030;PMS7003;6582;54.644;9.760;2023-08-08T08:40:01;68.0;57.5;
13030;PMS7003;6582;54.644;9.760;2023-08-08T08:45:02;68.8;58.5;
13030;PMS7003;6582;54.644;9.760;2023-08-08T08:50:06;66.5;54.9;
13030;PMS7003;6582;54.644;9.760;2023-08-08T08:55:01;66.4;55.0;
13030;PMS7003;6582;54.644;9.760;2023-08-08T09:00:01;67.7;56.9;
13030;PMS7003;6582;54.644;9.760;2023-08-08T09:05:01;68.8;58.7;
13030;PMS7003;6582;54.644;9.760;2023-08-08T09:10:01;70.8;62.3;
13030;PMS7003;6582;54.644;9.760;2023-08-08T09:15:01;72.4;63.0;
13030;PMS7003;6582;54.644;9.760;2023-08-08T09:20:01;75.0;66.9;
13030;PMS7003;6582;54.644;9.760;2023-08-08T09:25:01;76.5;69.2;
13030;PMS7003;6582;54.644;9.760;2023-08-08T09:30:01;76.0;68.2;
13030;PMS7003;6582;54.644;9.760;2023-08-08T09:35:01;73.8;64.2;
13030;PMS7003;6582;54.644;9.760;2023-08-08T09:40:02;71.8;63.0;
13030;PMS7003;6582;54.644;9.760;2023-08-08T09:45:01;68.9;58.7;
13030;PMS7003;6582;54.644;9.760;2023-08-08T09:50:02;66.4;54.8;
13030;PMS7003;6582;54.644;9.760;2023-08-08T09:55:01;65.7;54.2;
13030;PMS7003;6582;54.644;9.760;2023-08-08T10:00:07;71.0;58.9;
13030;PMS7003;6582;54.644;9.760;2023-08-08T10:05:02;70.1;58.4;
13030;PMS7003;6582;54.644;9.760;2023-08-08T10:10:01;69.5;58.1;
13030;PMS7003;6582;54.644;9.760;2023-08-08T10:15:02;68.7;57.5;
13030;PMS7003;6582;54.644;9.760;2023-08-08T10:20:01;68.1;57.1;
13030;PMS7003;6582;54.644;9.760;2023-08-08T10:25:03;62.0;51.8;
13030;PMS7003;6582;54.644;9.760;2023-08-08T10:30:02;61.7;51.4;
13030;PMS7003;6582;54.644;9.760;2023-08-08T10:40:01;61.4;51.2;
13030;PMS7003;6582;54.644;9.760;2023-08-08T10:45:02;60.9;50.8;
13030;PMS7003;6582;54.644;9.760;2023-08-08T10:50:05;60.8;50.8;
13030;PMS7003;6582;54.644;9.760;2023-08-08T10:55:02;61.5;51.5;
13030;PMS7003;6582;54.644;9.760;2023-08-08T11:15:02;66.4;54.8;
13030;PMS7003;6582;54.644;9.760;2023-08-08T11:20:02;66.3;54.8;
13030;PMS7003;6582;54.644;9.760;2023-08-08T11:25:07;66.7;55.1;
13030;PMS7003;6582;54.644;9.760;2023-08-08T11:30:03;66.7;55.2;
13030;PMS7003;6582;54.644;9.760;2023-08-08T11:35:02;66.4;54.9;
13030;PMS7003;6582;54.644;9.760;2023-08-08T11:40:02;65.5;54.1;
13030;PMS7003;6582;54.644;9.760;2023-08-08T11:45:02;64.6;53.3;
13030;PMS7003;6582;54.644;9.760;2023-08-08T11:50:02;63.7;52.6;
13030;PMS7003;6582;54.644;9.760;2023-08-08T11:55:02;63.6;52.5;
13030;PMS7003;6582;54.644;9.760;2023-08-08T12:00:06;64.6;53.6;
13030;PMS7003;6582;54.644;9.760;2023-08-08T12:05:04;66.3;55.6;
13030;PMS7003;6582;54.644;9.760;2023-08-08T12:10:03;67.8;57.2;
13030;PMS7003;6582;54.644;9.760;2023-08-08T12:15:17;68.8;58.0;
13030;PMS7003;6582;54.644;9.760;2023-08-08T12:20:03;68.7;57.8;
13030;PMS7003;6582;54.644;9.760;2023-08-08T12:25:02;69.4;59.1;
13030;PMS7003;6582;54.644;9.760;2023-08-08T12:30:02;69.8;59.8;
13030;PMS7003;6582;54.644;9.760;2023-08-08T12:35:02;69.6;59.2;
13030;PMS7003;6582;54.644;9.760;2023-08-08T12:40:02;70.0;59.2;
13030;PMS7003;6582;54.644;9.760;2023-08-08T12:45:02;70.8;59.5;
13030;PMS7003;6582;54.644;9.760;2023-08-08T12:50:02;69.4;57.4;
13030;PMS7003;6582;54.644;9.760;2023-08-08T12:55:02;67.9;55.2;
13030;PMS7003;6582;54.644;9.760;2023-08-08T13:00:07;66.9;54.4;
13030;PMS7003;6582;54.644;9.760;2023-08-08T13:05:03;66.0;54.0;
13030;PMS7003;6582;54.644;9.760;2023-08-08T13:10:07;65.0;53.5;
13030;PMS7003;6582;54.644;9.760;2023-08-08T13:15:09;64.6;53.1;
13030;PMS7003;6582;54.644;9.760;2023-08-08T13:20:02;64.8;52.9;
13030;PMS7003;6582;54.644;9.760;2023-08-08T13:25:02;71.3;58.4;
13030;PMS7003;6582;54.644;9.760;2023-08-08T13:30:04;71.3;58.3;
13030;PMS7003;6582;54.644;9.760;2023-08-08T13:35:02;71.1;58.2;
13030;PMS7003;6582;54.644;9.760;2023-08-08T13:40:02;71.3;58.4;
13030;PMS7003;6582;54.644;9.760;2023-08-08T13:45:02;71.0;58.4;
13030;PMS7003;6582;54.644;9.760;2023-08-08T13:50:02;65.2;53.4;
13030;PMS7003;6582;54.644;9.760;2023-08-08T14:00:02;65.7;53.8;
13030;PMS7003;6582;54.644;9.760;2023-08-08T14:10:02;66.0;54.4;
13030;PMS7003;6582;54.644;9.760;2023-08-08T14:15:03;66.2;54.7;
13030;PMS7003;6582;54.644;9.760;2023-08-08T14:20:02;66.0;54.5;
13030;PMS7003;6582;54.644;9.760;2023-08-08T14:25:02;65.5;54.1;
13030;PMS7003;6582;54.644;9.760;2023-08-08T14:30:02;65.3;53.7;
13030;PMS7003;6582;54.644;9.760;2023-08-08T14:35:02;65.0;53.5;
13030;PMS7003;6582;54.644;9.760;2023-08-08T14:40:02;64.6;53.2;
13030;PMS7003;6582;54.644;9.760;2023-08-08T14:45:02;64.6;53.2;
13030;PMS7003;6582;54.644;9.760;2023-08-08T14:50:02;64.3;53.2;
13030;PMS7003;6582;54.644;9.760;2023-08-08T14:55:02;65.7;54.7;
13030;PMS7003;6582;54.644;9.760;2023-08-08T15:00:02;67.1;56.0;
13030;PMS7003;6582;54.644;9.760;2023-08-08T15:05:02;68.3;57.7;
13030;PMS7003;6582;54.644;9.760;2023-08-08T15:10:08;69.2;58.7;
13030;PMS7003;6582;54.644;9.760;2023-08-08T15:15:02;70.1;59.4;
13030;PMS7003;6582;54.644;9.760;2023-08-08T15:20:03;73.8;62.4;
13030;PMS7003;6582;54.644;9.760;2023-08-08T15:25:07;72.5;61.2;
13030;PMS7003;6582;54.644;9.760;2023-08-08T15:30:02;72.1;60.1;
13030;PMS7003;6582;54.644;9.760;2023-08-08T15:35:02;72.3;59.8;
13030;PMS7003;6582;54.644;9.760;2023-08-08T15:40:02;73.0;60.2;
13030;PMS7003;6582;54.644;9.760;2023-08-08T15:45:02;68.4;56.2;
13030;PMS7003;6582;54.644;9.760;2023-08-08T15:50:02;68.8;56.5;
13030;PMS7003;6582;54.644;9.760;2023-08-08T15:55:02;68.0;55.8;
13030;PMS7003;6582;54.644;9.760;2023-08-08T16:00:03;66.8;54.9;
13030;PMS7003;6582;54.644;9.760;2023-08-08T16:05:02;70.4;58.0;
13030;PMS7003;6582;54.644;9.760;2023-08-08T16:10:02;69.8;57.3;
13030;PMS7003;6582;54.644;9.760;2023-08-08T16:15:02;69.6;57.2;
13030;PMS7003;6582;54.644;9.760;2023-08-08T16:20:02;70.0;57.6;
13030;PMS7003;6582;54.644;9.760;2023-08-08T16:25:02;70.4;58.0;
13030;PMS7003;6582;54.644;9.760;2023-08-08T16:30:01;66.0;54.5;
13030;PMS7003;6582;54.644;9.760;2023-08-08T16:40:02;66.3;54.8;
13030;PMS7003;6582;54.644;9.760;2023-08-08T16:45:01;66.0;54.4;
13030;PMS7003;6582;54.644;9.760;2023-08-08T16:50:02;65.5;54.2;
13030;PMS7003;6582;54.644;9.760;2023-08-08T16:55:02;65.6;54.2;
13030;PMS7003;6582;54.644;9.760;2023-08-08T17:00:04;66.2;54.8;
13030;PMS7003;6582;54.644;9.760;2023-08-08T17:05:02;66.3;54.6;
13030;PMS7003;6582;54.644;9.760;2023-08-08T17:10:02;67.0;55.0;
13030;PMS7003;6582;54.644;9.760;2023-08-08T17:15:01;67.2;55.0;
13030;PMS7003;6582;54.644;9.760;2023-08-08T17:20:02;67.1;54.8;
13030;PMS7003;6582;54.644;9.760;2023-08-08T17:25:03;66.9;54.5;
13030;PMS7003;6582;54.644;9.760;2023-08-08T17:30:02;66.8;54.3;
13030;PMS7003;6582;54.644;9.760;2023-08-08T17:35:02;66.0;53.9;
13030;PMS7003;6582;54.644;9.760;2023-08-08T17:40:01;66.3;54.2;
13030;PMS7003;6582;54.644;9.760;2023-08-08T17:45:02;65.8;54.0;
13030;PMS7003;6582;54.644;9.760;2023-08-08T17:50:01;65.9;54.2;
13030;PMS7003;6582;54.644;9.760;2023-08-08T17:55:01;65.4;53.9;
13030;PMS7003;6582;54.644;9.760;2023-08-08T18:00:02;66.5;54.7;
13030;PMS7003;6582;54.644;9.760;2023-08-08T18:05:02;65.8;54.4;
13030;PMS7003;6582;54.644;9.760;2023-08-08T18:10:02;66.0;54.6;
13030;PMS7003;6582;54.644;9.760;2023-08-08T18:15:01;65.4;54.2;
13030;PMS7003;6582;54.644;9.760;2023-08-08T18:25:07;64.2;53.4;
13030;PMS7003;6582;54.644;9.760;2023-08-08T18:30:02;64.8;53.7;
13030;PMS7003;6582;54.644;9.760;2023-08-08T18:35:02;64.7;53.6;
13030;PMS7003;6582;54.644;9.760;2023-08-08T18:40:02;64.9;53.6;
13030;PMS7003;6582;54.644;9.760;2023-08-08T18:45:02;64.9;53.6;
13030;PMS7003;6582;54.644;9.760;2023-08-08T18:50:03;64.6;53.5;
13030;PMS7003;6582;54.644;9.760;2023-08-08T18:55:02;64.2;53.2;
13030;PMS7003;6582;54.644;9.760;2023-08-08T19:00:02;63.5;52.8;
13030;PMS7003;6582;54.644;9.760;2023-08-08T19:05:02;63.1;52.8;
13030;PMS7003;6582;54.644;9.760;2023-08-08T19:10:02;63.2;53.0;
13030;PMS7003;6582;54.644;9.760;2023-08-08T19:15:03;63.5;53.1;
13030;PMS7003;6582;54.644;9.760;2023-08-08T19:20:04;63.9;53.4;
13030;PMS7003;6582;54.644;9.760;2023-08-08T19:25:02;65.4;54.4;
13030;PMS7003;6582;54.644;9.760;2023-08-08T19:30:07;65.6;54.4;
13030;PMS7003;6582;54.644;9.760;2023-08-08T19:35:07;65.5;54.3;
13030;PMS7003;6582;54.644;9.760;2023-08-08T19:40:02;66.0;54.5;
13030;PMS7003;6582;54.644;9.760;2023-08-08T19:45:08;66.9;55.0;
13030;PMS7003;6582;54.644;9.760;2023-08-08T19:50:04;67.2;55.4;
13030;PMS7003;6582;54.644;9.760;2023-08-08T19:55:12;68.0;56.2;
13030;PMS7003;6582;54.644;9.760;2023-08-08T20:00:11;67.7;56.0;
13030;PMS7003;6582;54.644;9.760;2023-08-08T20:05:07;67.1;55.8;
13030;PMS7003;6582;54.644;9.760;2023-08-08T20:10:03;65.8;55.0;
13030;PMS7003;6582;54.644;9.760;2023-08-08T20:15:02;64.3;53.9;
13030;PMS7003;6582;54.644;9.760;2023-08-08T20:20:02;64.0;53.5;
13030;PMS7003;6582;54.644;9.760;2023-08-08T20:25:02;64.2;53.6;
13030;PMS7003;6582;54.644;9.760;2023-08-08T20:30:01;64.4;53.9;
13030;PMS7003;6582;54.644;9.760;2023-08-08T20:35:02;64.8;54.3;
13030;PMS7003;6582;54.644;9.760;2023-08-08T20:40:02;67.2;55.9;
13030;PMS7003;6582;54.644;9.760;2023-08-08T20:45:02;67.1;56.1;
13030;PMS7003;6582;54.644;9.760;2023-08-08T20:50:02;67.7;56.5;
13030;PMS7003;6582;54.644;9.760;2023-08-08T20:55:02;67.5;56.3;
13030;PMS7003;6582;54.644;9.760;2023-08-08T21:00:02;68.1;56.6;
13030;PMS7003;6582;54.644;9.760;2023-08-08T21:05:03;67.2;55.8;
13030;PMS7003;6582;54.644;9.760;2023-08-08T21:10:02;67.4;55.8;
13030;PMS7003;6582;54.644;9.760;2023-08-08T21:15:02;67.6;56.0;
13030;PMS7003;6582;54.644;9.760;2023-08-08T21:20:02;68.7;56.5;
13030;PMS7003;6582;54.644;9.760;2023-08-08T21:25:07;73.5;60.1;
13030;PMS7003;6582;54.644;9.760;2023-08-08T21:30:07;73.1;59.7;
13030;PMS7003;6582;54.644;9.760;2023-08-08T21:35:02;72.6;59.2;
13030;PMS7003;6582;54.644;9.760;2023-08-08T21:40:02;72.2;58.5;
13030;PMS7003;6582;54.644;9.760;2023-08-08T21:45:03;72.8;58.6;
13030;PMS7003;6582;54.644;9.760;2023-08-08T21:50:01;68.5;55.3;
13030;PMS7003;6582;54.644;9.760;2023-08-08T21:55:02;68.1;55.3;
13030;PMS7003;6582;54.644;9.760;2023-08-08T22:00:01;68.8;56.0;
13030;PMS7003;6582;54.644;9.760;2023-08-08T22:10:02;67.6;56.2;
13030;PMS7003;6582;54.644;9.760;2023-08-08T22:15:02;67.3;56.1;
13030;PMS7003;6582;54.644;9.760;2023-08-08T22:20:01;67.7;56.2;
13030;PMS7003;6582;54.644;9.760;2023-08-08T22:30:02;67.4;55.9;
13030;PMS7003;6582;54.644;9.760;2023-08-08T22:35:02;67.2;55.7;
13030;PMS7003;6582;54.644;9.760;2023-08-08T22:40:01;66.8;55.3;
13030;PMS7003;6582;54.644;9.760;2023-08-08T22:45:01;67.4;55.7;
13030;PMS7003;6582;54.644;9.760;2023-08-08T22:50:02;67.5;55.8;
13030;PMS7003;6582;54.644;9.760;2023-08-08T22:55:01;67.6;56.0;
13030;PMS7003;6582;54.644;9.760;2023-08-08T23:00:02;68.1;56.4;
13030;PMS7003;6582;54.644;9.760;2023-08-08T23:10:02;66.6;55.3;
13030;PMS7003;6582;54.644;9.760;2023-08-08T23:15:03;65.8;54.9;
13030;PMS7003;6582;54.644;9.760;2023-08-08T23:20:02;66.9;55.6;
13030;PMS7003;6582;54.644;9.760;2023-08-08T23:25:07;66.8;55.4;
13030;PMS7003;6582;54.644;9.760;2023-08-08T23:30:01;66.8;55.4;
13030;PMS7003;6582;54.644;9.760;2023-08-08T23:35:01;67.3;55.7;
13030;PMS7003;6582;54.644;9.760;2023-08-08T23:40:01;67.6;55.8;
13030;PMS7003;6582;54.644;9.760;2023-08-08T23:45:07;67.0;55.2;
13030;PMS7003;6582;54.644;9.760;2023-08-08T23:50:01;67.2;55.5;
